Time;durP1;ratioP1;P1;durP2;ratioP2;P2;SDS_P1;SDS_P2;PMS_P1;PMS_P2;Temp;Humidity;BMP_temperature;BMP_pressure;BME280_temperature;BME280_humidity;BME280_pressure;Samples;Min_cycle;Max_cycle;Signal;HPM_P1;HPM_P2
2023/12/27 00:00:03;;;;;;;;;;;;;;;26.05;39.52;94775.81;4956910;28;6864;-39
2023/12/27 00:02:39;;;;;;;;;;;;;;;26.04;39.86;94780.56;4952041;28;7348;-40
2023/12/27 00:05:06;;;;;;;;;;;;;;;26.02;39.74;94777.56;4960788;28;8603;-39
2023/12/27 00:08:02;;;;;;;;;;;;;;;26.03;39.83;94768.03;4972636;28;8713;-39
2023/12/27 00:10:30;;;;;;;;;;;;;;;26.00;39.40;94763.53;4951246;29;8781;-40
2023/12/27 00:13:15;;;;;;;;;;;;;;;26.02;39.52;94761.03;4949617;29;7986;-37
2023/12/27 00:15:56;;;;;;;;;;;;;;;26.02;39.81;94758.25;4949668;29;9103;-37
2023/12/27 00:18:23;;;;;;;;;;;;;;;26.01;39.57;94748.47;4939687;29;9247;-37
2023/12/27 00:20:50;;;;;;;;;;;;;;;26.01;39.96;94753.25;4945295;29;7169;-37
2023/12/27 00:23:30;;;;;;;;;;;;;;;25.98;39.35;94760.53;4940818;28;8216;-38
2023/12/27 00:26:08;;;;;;;;;;;;;;;26.01;39.41;94759.50;4943180;28;6963;-37
2023/12/27 00:28:47;;;;;;;;;;;;;;;26.03;39.82;94756.25;4924957;29;7089;-37
2023/12/27 00:31:34;;;;;;;;;;;;;;;26.00;39.25;94755.25;4965294;28;7046;-37
2023/12/27 00:34:17;;;;;;;;;;;;;;;26.00;39.48;94751.75;4972490;28;7205;-38
2023/12/27 00:36:57;;;;;;;;;;;;;;;25.99;39.82;94762.00;4952972;28;8364;-37
2023/12/27 00:39:24;;;;;;;;;;;;;;;25.98;39.41;94754.25;4972778;28;7081;-38
2023/12/27 00:42:24;;;;;;;;;;;;;;;25.98;39.43;94760.53;4975301;28;9114;-37
2023/12/27 00:45:07;;;;;;;;;;;;;;;25.97;39.74;94753.50;4959399;28;8446;-37
2023/12/27 00:47:34;;;;;;;;;;;;;;;25.95;39.75;94755.25;4974244;28;7004;-37
2023/12/27 00:50:00;;;;;;;;;;;;;;;25.97;39.88;94759.00;4959971;28;7180;-37
2023/12/27 00:52:36;;;;;;;;;;;;;;;25.96;39.41;94757.53;4971632;28;7316;-37
2023/12/27 00:55:05;;;;;;;;;;;;;;;25.97;39.72;94756.25;4944934;28;9107;-38
2023/12/27 00:57:47;;;;;;;;;;;;;;;25.97;39.12;94767.28;4959211;28;9184;-37
2023/12/27 01:00:28;;;;;;;;;;;;;;;25.97;39.26;94758.25;4955211;28;7564;-37
2023/12/27 01:03:12;;;;;;;;;;;;;;;25.94;39.39;94760.03;4959348;28;7181;-38
2023/12/27 01:05:53;;;;;;;;;;;;;;;25.94;39.77;94760.03;4948977;28;7316;-37
2023/12/27 01:08:30;;;;;;;;;;;;;;;25.93;39.22;94760.53;4970533;28;9393;-37
2023/12/27 01:10:58;;;;;;;;;;;;;;;25.95;39.26;94756.00;4955041;28;9447;-37
2023/12/27 01:13:42;;;;;;;;;;;;;;;25.97;39.06;94758.25;4970789;28;7451;-37
2023/12/27 01:16:08;;;;;;;;;;;;;;;25.95;39.13;94745.00;4957866;28;8794;-38
2023/12/27 01:19:05;;;;;;;;;;;;;;;25.95;39.19;94745.00;4957582;28;9082;-38
2023/12/27 01:21:51;;;;;;;;;;;;;;;25.93;39.60;94730.22;4981095;28;7210;-40
2023/12/27 01:24:48;;;;;;;;;;;;;;;25.94;38.89;94732.47;4996167;28;7264;-39
2023/12/27 01:27:40;;;;;;;;;;;;;;;25.94;39.89;94732.47;4977352;28;7519;-40
2023/12/27 01:30:23;;;;;;;;;;;;;;;25.93;39.53;94742.00;4974970;28;9713;-41
2023/12/27 01:33:06;;;;;;;;;;;;;;;25.92;39.42;94751.53;4974188;28;7267;-40
2023/12/27 01:35:41;;;;;;;;;;;;;;;25.92;38.92;94737.75;4972587;28;7343;-40
2023/12/27 01:38:09;;;;;;;;;;;;;;;25.92;39.86;94745.25;4981116;28;7747;-40
2023/12/27 01:41:16;;;;;;;;;;;;;;;25.91;39.76;94739.00;4974545;28;9421;-40
2023/12/27 01:44:08;;;;;;;;;;;;;;;25.90;39.84;94731.25;4969377;28;7355;-39
2023/12/27 01:47:00;;;;;;;;;;;;;;;25.89;38.94;94736.00;4949081;28;9036;-40
2023/12/27 01:49:50;;;;;;;;;;;;;;;25.90;39.16;94737.47;4973584;28;7498;-40
2023/12/27 01:52:16;;;;;;;;;;;;;;;25.88;39.07;94733.75;4958152;28;7089;-39
2023/12/27 01:54:43;;;;;;;;;;;;;;;25.90;39.18;94734.00;4958436;28;7225;-40
2023/12/27 01:57:47;;;;;;;;;;;;;;;25.90;38.91;94734.72;4965488;28;9446;-40
2023/12/27 02:00:23;;;;;;;;;;;;;;;25.90;39.01;94725.72;4971675;28;6993;-40
2023/12/27 02:03:06;;;;;;;;;;;;;;;25.91;39.55;94727.22;4947699;28;8958;-40
2023/12/27 02:05:35;;;;;;;;;;;;;;;25.91;39.56;94722.47;5020060;28;7959;-40
2023/12/27 02:08:06;;;;;;;;;;;;;;;25.90;38.81;94725.72;5022509;28;7736;-39
2023/12/27 02:10:34;;;;;;;;;;;;;;;25.90;39.15;94725.72;5015926;28;8981;-40
2023/12/27 02:13:09;;;;;;;;;;;;;;;25.89;38.74;94724.97;5025505;28;7302;-40
2023/12/27 02:15:35;;;;;;;;;;;;;;;25.92;38.76;94735.00;5025120;28;7370;-40
2023/12/27 02:18:12;;;;;;;;;;;;;;;25.92;38.73;94729.47;5029231;28;7622;-40
2023/12/27 02:20:54;;;;;;;;;;;;;;;25.94;38.84;94734.47;5031368;28;7322;-39
2023/12/27 02:23:42;;;;;;;;;;;;;;;25.93;39.11;94728.22;5024802;28;9027;-39
2023/12/27 02:26:20;;;;;;;;;;;;;;;25.95;39.02;94733.97;5031171;28;7242;-39
2023/12/27 02:28:47;;;;;;;;;;;;;;;25.95;38.94;94727.69;5040555;28;7010;-40
2023/12/27 02:31:35;;;;;;;;;;;;;;;25.95;38.80;94727.69;5028641;28;7257;-56
2023/12/27 02:34:01;;;;;;;;;;;;;;;25.93;39.00;94733.72;5029671;28;8735;-56
2023/12/27 02:36:38;;;;;;;;;;;;;;;25.93;39.27;94719.94;5045318;28;7227;-56
2023/12/27 02:39:05;;;;;;;;;;;;;;;25.93;39.22;94725.47;5040087;28;7212;-56
2023/12/27 02:41:51;;;;;;;;;;;;;;;25.92;38.93;94718.47;5018112;28;9252;-56
2023/12/27 02:44:20;;;;;;;;;;;;;;;25.91;39.34;94716.19;5014603;28;7483;-56
2023/12/27 02:46:56;;;;;;;;;;;;;;;25.92;38.75;94710.19;5029885;28;8211;-56
2023/12/27 02:49:31;;;;;;;;;;;;;;;25.93;39.61;94702.66;5028750;28;7004;-56
2023/12/27 02:52:03;;;;;;;;;;;;;;;25.93;39.62;94695.13;5032531;28;7079;-56
2023/12/27 02:54:30;;;;;;;;;;;;;;;25.93;39.32;94697.91;5024831;28;7004;-56
2023/12/27 02:56:57;;;;;;;;;;;;;;;25.93;39.25;94703.41;5029310;28;7417;-56
2023/12/27 02:59:26;;;;;;;;;;;;;;;25.92;38.81;94698.41;5016020;28;9324;-56
2023/12/27 03:01:51;;;;;;;;;;;;;;;25.91;39.14;94710.69;5019623;28;9225;-56
2023/12/27 03:04:20;;;;;;;;;;;;;;;25.91;38.73;94700.41;5020987;28;9181;-56
2023/12/27 03:06:48;;;;;;;;;;;;;;;25.91;38.58;94699.66;5026111;28;9148;-56
2023/12/27 03:09:17;;;;;;;;;;;;;;;25.90;39.07;94687.16;5022300;28;7241;-56
2023/12/27 03:11:43;;;;;;;;;;;;;;;25.89;38.59;94674.59;5016029;28;9157;-56
2023/12/27 03:14:09;;;;;;;;;;;;;;;25.89;38.67;94678.13;5026360;28;9482;-57
2023/12/27 03:16:37;;;;;;;;;;;;;;;25.88;38.60;94684.88;5010214;28;7281;-56
2023/12/27 03:19:03;;;;;;;;;;;;;;;25.84;39.38;94684.38;5017931;28;7335;-56
2023/12/27 03:21:32;;;;;;;;;;;;;;;25.82;39.21;94681.38;5018028;28;7237;-56
2023/12/27 03:24:00;;;;;;;;;;;;;;;25.80;38.90;94683.16;5022594;28;9407;-56
2023/12/27 03:26:26;;;;;;;;;;;;;;;25.82;38.80;94680.63;5031186;28;8190;-56
2023/12/27 03:28:52;;;;;;;;;;;;;;;25.84;38.75;94678.13;5015552;28;9122;-56
2023/12/27 03:31:19;;;;;;;;;;;;;;;25.87;38.87;94677.13;5028550;28;9057;-56
2023/12/27 03:33:45;;;;;;;;;;;;;;;25.88;39.24;94678.63;5039919;28;8742;-56
2023/12/27 03:36:11;;;;;;;;;;;;;;;25.88;38.96;94673.84;5021289;28;9503;-56
2023/12/27 03:38:37;;;;;;;;;;;;;;;25.86;38.83;94665.34;5024561;28;7178;-56
2023/12/27 03:41:03;;;;;;;;;;;;;;;25.84;39.03;94667.84;5030220;28;7177;-56
2023/12/27 03:43:35;;;;;;;;;;;;;;;25.85;38.75;94668.63;5028009;28;7497;-57
2023/12/27 03:46:07;;;;;;;;;;;;;;;25.81;39.50;94670.88;5022606;28;9447;-57
2023/12/27 03:48:35;;;;;;;;;;;;;;;25.79;39.16;94671.41;5019544;28;8772;-57
2023/12/27 03:51:03;;;;;;;;;;;;;;;25.80;39.54;94672.13;5024892;28;7175;-57
2023/12/27 03:53:31;;;;;;;;;;;;;;;25.74;39.42;94663.13;5012201;28;7235;-57
2023/12/27 03:56:01;;;;;;;;;;;;;;;25.77;39.41;94662.88;5030505;28;7149;-57
2023/12/27 03:58:28;;;;;;;;;;;;;;;25.77;38.70;94665.66;5025132;28;9535;-56
2023/12/27 04:01:24;;;;;;;;;;;;;;;25.79;38.92;94663.13;5040338;28;9064;-57
2023/12/27 04:03:53;;;;;;;;;;;;;;;25.80;39.06;94659.09;5023397;28;7220;-56
2023/12/27 04:06:19;;;;;;;;;;;;;;;25.76;39.23;94666.88;5029181;28;7265;-56
2023/12/27 04:08:48;;;;;;;;;;;;;;;25.74;39.18;94666.66;5021793;28;7257;-57
2023/12/27 04:11:22;;;;;;;;;;;;;;;25.74;39.15;94663.13;5034261;28;6987;-57
2023/12/27 04:14:08;;;;;;;;;;;;;;;25.77;39.00;94665.66;5022293;28;9294;-57
2023/12/27 04:16:36;;;;;;;;;;;;;;;25.75;38.80;94664.66;5045763;28;8736;-57
2023/12/27 04:19:09;;;;;;;;;;;;;;;25.77;38.62;94675.91;5036751;28;7257;-57
2023/12/27 04:21:36;;;;;;;;;;;;;;;25.73;38.64;94672.66;5032291;28;7251;-56
2023/12/27 04:24:31;;;;;;;;;;;;;;;25.75;39.09;94676.41;5032131;28;9125;-56
2023/12/27 04:27:02;;;;;;;;;;;;;;;25.75;38.66;94676.41;5019004;28;7293;-56
2023/12/27 04:29:29;;;;;;;;;;;;;;;25.72;39.26;94663.66;5046768;28;7365;-57
2023/12/27 04:31:56;;;;;;;;;;;;;;;25.66;38.77;94673.94;5040952;28;7341;-56
2023/12/27 04:34:41;;;;;;;;;;;;;;;25.65;39.45;94680.69;5033140;28;9214;-57
2023/12/27 04:37:11;;;;;;;;;;;;;;;25.67;38.77;94689.19;5028495;28;7877;-57
2023/12/27 04:39:41;;;;;;;;;;;;;;;25.69;39.22;94667.41;5031587;28;8866;-56
2023/12/27 04:42:16;;;;;;;;;;;;;;;25.74;39.08;94666.66;5039342;28;7639;-56
2023/12/27 04:45:22;;;;;;;;;;;;;;;25.73;39.10;94667.88;5018997;28;7066;-57
2023/12/27 04:48:02;;;;;;;;;;;;;;;25.76;38.60;94671.63;5028562;28;7073;-56
2023/12/27 04:50:29;;;;;;;;;;;;;;;25.70;39.55;94668.16;5014632;28;9410;-56
2023/12/27 04:53:11;;;;;;;;;;;;;;;25.63;38.70;94655.66;5015784;28;9070;-38
2023/12/27 04:55:39;;;;;;;;;;;;;;;25.61;39.72;94660.16;5017371;28;9029;-37
2023/12/27 04:58:06;;;;;;;;;;;;;;;25.58;38.85;94658.44;5011417;28;7225;-37
2023/12/27 05:00:33;;;;;;;;;;;;;;;25.59;39.75;94657.91;5029475;28;9006;-37
2023/12/27 05:03:37;;;;;;;;;;;;;;;25.63;38.70;94663.16;5007309;28;7284;-37
2023/12/27 05:06:14;;;;;;;;;;;;;;;25.66;39.43;94646.38;4942952;28;7540;-37
2023/12/27 05:08:50;;;;;;;;;;;;;;;25.62;39.57;94662.41;4950660;28;9199;-37
2023/12/27 05:11:19;;;;;;;;;;;;;;;25.61;39.50;94657.41;4936329;28;7122;-37
2023/12/27 05:13:50;;;;;;;;;;;;;;;25.59;39.24;94663.44;4944518;28;7485;-38
2023/12/27 05:16:37;;;;;;;;;;;;;;;25.56;38.80;94658.16;4949443;28;8723;-38
2023/12/27 05:19:05;;;;;;;;;;;;;;;25.54;39.69;94661.44;4956077;28;9367;-37
2023/12/27 05:21:40;;;;;;;;;;;;;;;25.53;39.94;94659.94;4946249;28;9220;-37
2023/12/27 05:24:41;;;;;;;;;;;;;;;25.57;39.44;94660.44;4959080;28;7546;-37
2023/12/27 05:27:25;;;;;;;;;;;;;;;25.56;39.39;94667.19;4949982;28;9139;-37
2023/12/27 05:29:52;;;;;;;;;;;;;;;25.58;38.97;94674.97;4951541;28;9095;-37
2023/12/27 05:32:37;;;;;;;;;;;;;;;25.61;39.55;94665.66;4960595;28;7543;-37
2023/12/27 05:35:16;;;;;;;;;;;;;;;25.66;39.24;94670.41;4940216;28;8755;-37
2023/12/27 05:37:44;;;;;;;;;;;;;;;25.60;39.03;94664.91;4939160;28;9528;-38
2023/12/27 05:40:15;;;;;;;;;;;;;;;25.61;39.51;94671.19;4939938;28;8496;-37
2023/12/27 05:42:57;;;;;;;;;;;;;;;25.56;38.94;94669.19;4990720;28;9140;-37
2023/12/27 05:45:34;;;;;;;;;;;;;;;25.51;39.21;94661.69;4993404;28;8641;-37
2023/12/27 05:48:03;;;;;;;;;;;;;;;25.53;38.89;94676.47;4980936;28;6990;-37
2023/12/27 05:50:32;;;;;;;;;;;;;;;25.49;39.07;94664.94;4993651;28;8299;-37
2023/12/27 05:53:03;;;;;;;;;;;;;;;25.48;39.86;94668.94;5009697;28;9078;-37
2023/12/27 05:55:30;;;;;;;;;;;;;;;25.52;39.75;94677.72;5010208;28;9408;-37
2023/12/27 05:57:58;;;;;;;;;;;;;;;25.50;39.59;94671.19;5000923;28;8769;-37
2023/12/27 06:00:26;;;;;;;;;;;;;;;25.52;39.78;94663.94;4987564;28;7055;-37
2023/12/27 06:03:06;;;;;;;;;;;;;;;25.50;39.43;94668.44;5017831;28;9234;-41
2023/12/27 06:05:34;;;;;;;;;;;;;;;25.58;38.94;94669.44;5047304;28;8804;-40
2023/12/27 06:08:05;;;;;;;;;;;;;;;25.62;39.02;94681.69;5033549;28;8628;-41
2023/12/27 06:10:33;;;;;;;;;;;;;;;25.61;39.78;94669.19;5023342;28;7250;-41
2023/12/27 06:13:04;;;;;;;;;;;;;;;25.62;39.49;94664.44;5033083;28;7247;-41
2023/12/27 06:15:30;;;;;;;;;;;;;;;25.64;39.23;94667.44;5038435;28;7249;-41
2023/12/27 06:18:15;;;;;;;;;;;;;;;25.61;39.29;94665.66;5021172;28;9127;-41
2023/12/27 06:20:41;;;;;;;;;;;;;;;25.58;39.33;94666.69;5045549;28;8724;-40
2023/12/27 06:23:10;;;;;;;;;;;;;;;25.64;39.44;94679.19;5034625;28;9217;-40
2023/12/27 06:25:43;;;;;;;;;;;;;;;25.64;39.80;94673.69;5028855;28;7242;-41
2023/12/27 06:28:09;;;;;;;;;;;;;;;25.64;39.06;94670.94;5031270;28;9618;-40
2023/12/27 06:30:51;;;;;;;;;;;;;;;25.66;38.91;94665.66;5026862;28;8969;-40
2023/12/27 06:33:26;;;;;;;;;;;;;;;25.66;39.56;94662.16;5037099;28;7280;-42
2023/12/27 06:35:57;;;;;;;;;;;;;;;25.66;39.62;94668.44;5025736;28;7306;-41
2023/12/27 06:38:23;;;;;;;;;;;;;;;25.61;38.96;94674.69;5032054;28;9209;-41
2023/12/27 06:40:55;;;;;;;;;;;;;;;25.60;39.76;94673.16;5029521;28;7477;-41
2023/12/27 06:43:36;;;;;;;;;;;;;;;25.60;39.64;94669.69;5027141;28;7420;-43
2023/12/27 06:46:34;;;;;;;;;;;;;;;25.60;39.09;94675.94;5018332;28;7222;-40
2023/12/27 06:49:06;;;;;;;;;;;;;;;25.66;39.27;94684.94;5013974;28;9458;-42
2023/12/27 06:51:43;;;;;;;;;;;;;;;25.69;38.92;94678.41;5014825;28;7262;-41
2023/12/27 06:54:10;;;;;;;;;;;;;;;25.71;39.71;94686.94;5020851;28;7086;-40
2023/12/27 06:56:45;;;;;;;;;;;;;;;25.70;38.80;94687.44;5023540;28;8535;-41
2023/12/27 06:59:41;;;;;;;;;;;;;;;25.73;39.48;94695.44;5037923;28;7214;-41
2023/12/27 07:02:19;;;;;;;;;;;;;;;25.72;39.15;94685.69;4973519;28;8886;-41
2023/12/27 07:04:56;;;;;;;;;;;;;;;25.74;38.64;94685.94;4985738;28;9016;-40
2023/12/27 07:07:41;;;;;;;;;;;;;;;25.74;39.30;94672.16;4992901;28;7340;-40
2023/12/27 07:10:36;;;;;;;;;;;;;;;25.75;38.50;94681.19;4975944;28;9430;-40
2023/12/27 07:13:04;;;;;;;;;;;;;;;25.74;39.22;94683.19;4928160;29;7072;-41
2023/12/27 07:15:31;;;;;;;;;;;;;;;25.72;39.36;94682.19;4923351;28;7211;-41
2023/12/27 07:18:06;;;;;;;;;;;;;;;25.71;39.18;94691.72;4912995;29;6955;-40
2023/12/27 07:20:32;;;;;;;;;;;;;;;25.74;38.48;94693.44;4914290;29;6965;-40
2023/12/27 07:22:58;;;;;;;;;;;;;;;25.71;38.82;94692.44;4912270;29;7328;-42
2023/12/27 07:25:25;;;;;;;;;;;;;;;25.72;38.16;94693.94;4914800;29;7343;-40
2023/12/27 07:27:51;;;;;;;;;;;;;;;25.70;39.01;94696.47;4931477;29;7227;-42
2023/12/27 07:30:17;;;;;;;;;;;;;;;25.69;39.03;94685.94;4931511;29;9043;-40
2023/12/27 07:32:43;;;;;;;;;;;;;;;25.68;38.95;94682.44;4915289;29;7035;-41
2023/12/27 07:35:11;;;;;;;;;;;;;;;25.70;38.39;94688.19;4922640;29;8719;-40
2023/12/27 07:37:37;;;;;;;;;;;;;;;25.71;38.73;94680.69;4935647;28;7306;-40
2023/12/27 07:40:09;;;;;;;;;;;;;;;25.67;38.56;94675.41;4985164;28;7351;-41
2023/12/27 07:42:40;;;;;;;;;;;;;;;25.67;39.74;94671.91;4966869;28;7141;-40
2023/12/27 07:45:06;;;;;;;;;;;;;;;25.74;39.15;94674.91;4978853;28;9016;-41
2023/12/27 07:47:48;;;;;;;;;;;;;;;25.78;38.43;94686.41;4983392;28;7295;-40
2023/12/27 07:50:25;;;;;;;;;;;;;;;25.74;39.23;94680.41;5022326;28;6960;-41
2023/12/27 07:53:09;;;;;;;;;;;;;;;25.74;38.97;94687.94;5019962;28;7090;-41
2023/12/27 07:55:37;;;;;;;;;;;;;;;25.71;38.80;94677.94;5028183;28;9532;-41
2023/12/27 07:58:04;;;;;;;;;;;;;;;25.73;38.44;94692.69;5019537;28;8789;-41
2023/12/27 08:00:41;;;;;;;;;;;;;;;25.72;38.34;94691.19;5028711;28;7201;-42
2023/12/27 08:03:08;;;;;;;;;;;;;;;25.74;38.67;94694.19;5033489;28;7047;-41
2023/12/27 08:05:35;;;;;;;;;;;;;;;25.71;38.70;94688.94;5032599;28;7029;-42
2023/12/27 08:08:18;;;;;;;;;;;;;;;25.68;38.99;94690.72;5014536;28;7220;-41
2023/12/27 08:11:06;;;;;;;;;;;;;;;25.65;38.65;94696.47;5018970;28;7507;-41
2023/12/27 08:13:37;;;;;;;;;;;;;;;25.58;39.30;94689.47;5023183;28;9587;-40
2023/12/27 08:16:07;;;;;;;;;;;;;;;25.67;39.07;94691.94;5023974;28;7845;-41
2023/12/27 08:18:35;;;;;;;;;;;;;;;25.63;39.72;94696.97;5024829;28;7033;-42
2023/12/27 08:21:16;;;;;;;;;;;;;;;25.70;39.44;94701.22;5031150;28;7060;-52
2023/12/27 08:23:43;;;;;;;;;;;;;;;25.71;39.27;94700.69;5031434;28;9176;-54
2023/12/27 08:26:27;;;;;;;;;;;;;;;25.75;38.93;94692.19;5015750;28;9745;-53
2023/12/27 08:28:56;;;;;;;;;;;;;;;25.75;39.04;94690.16;5022547;28;6994;-53
2023/12/27 08:31:24;;;;;;;;;;;;;;;25.69;38.54;94685.94;5025376;28;9100;-55
2023/12/27 08:33:58;;;;;;;;;;;;;;;25.71;39.58;94692.44;5030493;28;9220;-55
2023/12/27 08:36:29;;;;;;;;;;;;;;;25.72;38.73;94682.19;5022474;28;9085;-53
2023/12/27 08:38:58;;;;;;;;;;;;;;;25.75;39.03;94690.16;5035032;28;9098;-55
2023/12/27 08:41:25;;;;;;;;;;;;;;;25.78;38.69;94696.69;5022324;28;7343;-55
2023/12/27 08:44:01;;;;;;;;;;;;;;;25.76;38.43;94690.94;5044257;28;7257;-55
2023/12/27 08:46:39;;;;;;;;;;;;;;;25.79;38.92;94703.72;5023075;28;9152;-55
2023/12/27 08:49:11;;;;;;;;;;;;;;;25.80;38.74;94689.41;5027480;28;7272;-54
2023/12/27 08:51:38;;;;;;;;;;;;;;;25.82;38.31;94692.41;5032870;28;7626;-54
2023/12/27 08:54:10;;;;;;;;;;;;;;;25.84;38.82;94697.41;5029366;28;8149;-54
2023/12/27 08:56:36;;;;;;;;;;;;;;;25.85;38.97;94696.94;5031881;28;7074;-55
2023/12/27 08:59:03;;;;;;;;;;;;;;;25.84;38.53;94706.44;5025404;28;9336;-54
2023/12/27 09:01:31;;;;;;;;;;;;;;;25.86;38.38;94703.91;5029150;28;9035;-55
2023/12/27 09:04:05;;;;;;;;;;;;;;;25.86;38.78;94703.19;5021456;28;9152;-52
2023/12/27 09:06:33;;;;;;;;;;;;;;;25.84;39.01;94703.69;5026627;28;9728;-54
2023/12/27 09:08:59;;;;;;;;;;;;;;;25.85;39.03;94699.69;5020858;28;8821;-56
2023/12/27 09:11:25;;;;;;;;;;;;;;;25.90;38.69;94701.66;5031239;28;9064;-55
2023/12/27 09:13:51;;;;;;;;;;;;;;;25.93;38.77;94708.91;5038399;28;9173;-52
2023/12/27 09:16:17;;;;;;;;;;;;;;;25.93;38.48;94706.16;5013476;28;9056;-55
2023/12/27 09:18:44;;;;;;;;;;;;;;;25.89;38.90;94702.16;5031991;28;9183;-54
2023/12/27 09:21:11;;;;;;;;;;;;;;;25.90;38.82;94703.69;5046049;28;9111;-53
2023/12/27 09:23:40;;;;;;;;;;;;;;;25.91;39.02;94705.91;5015794;28;9498;-54
2023/12/27 09:26:12;;;;;;;;;;;;;;;25.92;38.37;94698.41;5020906;28;9689;-55
2023/12/27 09:28:39;;;;;;;;;;;;;;;25.93;38.65;94694.38;5017278;28;7744;-56
2023/12/27 09:31:09;;;;;;;;;;;;;;;25.92;38.99;94695.66;5043617;28;7145;-37
2023/12/27 09:33:42;;;;;;;;;;;;;;;25.88;38.93;94690.38;5017952;28;7050;-37
2023/12/27 09:36:08;;;;;;;;;;;;;;;25.93;38.38;94695.13;5021034;28;7067;-37
2023/12/27 09:38:38;;;;;;;;;;;;;;;25.92;38.42;94695.66;5031836;28;8819;-37
2023/12/27 09:41:04;;;;;;;;;;;;;;;25.90;38.83;94687.88;5033153;28;9129;-37
2023/12/27 09:43:34;;;;;;;;;;;;;;;25.93;38.32;94686.13;5030179;28;7312;-37
2023/12/27 09:46:04;;;;;;;;;;;;;;;25.93;38.19;94680.59;5031563;28;9124;-37
2023/12/27 09:48:43;;;;;;;;;;;;;;;25.90;39.00;94682.38;5033001;28;8920;-37
2023/12/27 09:51:24;;;;;;;;;;;;;;;25.92;38.53;94685.38;5039293;28;8768;-37
2023/12/27 09:53:58;;;;;;;;;;;;;;;25.95;38.79;94680.84;5012845;28;7499;-37
2023/12/27 09:56:27;;;;;;;;;;;;;;;25.95;39.01;94683.59;5018741;28;7656;-37
2023/12/27 09:58:59;;;;;;;;;;;;;;;25.96;38.72;94683.13;5017064;28;8946;-37
2023/12/27 10:01:29;;;;;;;;;;;;;;;25.97;38.69;94676.34;5015936;28;8834;-37
2023/12/27 10:04:07;;;;;;;;;;;;;;;25.98;38.98;94674.34;5024329;28;9163;-37
2023/12/27 10:06:51;;;;;;;;;;;;;;;25.97;38.48;94667.31;5023993;28;9014;-37
2023/12/27 10:09:37;;;;;;;;;;;;;;;25.99;38.83;94662.78;5031027;28;7105;-37
2023/12/27 10:12:07;;;;;;;;;;;;;;;25.96;38.15;94647.28;5033573;28;7254;-37
2023/12/27 10:14:38;;;;;;;;;;;;;;;25.99;38.35;94646.25;5020105;28;7820;-37
2023/12/27 10:17:12;;;;;;;;;;;;;;;25.98;38.82;94641.25;5016339;28;8765;-37
2023/12/27 10:19:49;;;;;;;;;;;;;;;25.98;38.34;94639.25;5034633;28;8963;-38
2023/12/27 10:22:23;;;;;;;;;;;;;;;25.98;38.16;94639.25;5030297;28;7377;-37
2023/12/27 10:24:49;;;;;;;;;;;;;;;26.01;38.85;94629.97;5022554;28;7388;-38
2023/12/27 10:27:16;;;;;;;;;;;;;;;26.04;38.22;94617.94;5025505;28;6965;-37
2023/12/27 10:30:05;;;;;;;;;;;;;;;26.05;37.48;94616.69;5034039;28;9077;-37
2023/12/27 10:33:00;;;;;;;;;;;;;;;25.94;32.21;94616.72;5026872;28;9097;-37
2023/12/27 10:35:35;;;;;;;;;;;;;;;25.61;28.87;94618.84;4971368;28;7661;-37
2023/12/27 10:38:15;;;;;;;;;;;;;;;25.43;28.43;94614.63;4976168;28;6989;-37
2023/12/27 10:40:44;;;;;;;;;;;;;;;25.38;28.45;94613.34;4970590;28;7377;-37
2023/12/27 10:43:18;;;;;;;;;;;;;;;25.38;28.76;94610.59;4980926;28;8781;-56
2023/12/27 10:45:46;;;;;;;;;;;;;;;25.44;28.76;94607.88;4975286;28;9479;-57
2023/12/27 10:48:14;;;;;;;;;;;;;;;25.48;28.01;94622.13;4984601;28;8921;-56
2023/12/27 10:50:46;;;;;;;;;;;;;;;25.53;28.35;94610.38;4992923;28;6860;-56
2023/12/27 10:53:49;;;;;;;;;;;;;;;25.58;28.92;94612.34;4973998;28;9557;-56
2023/12/27 10:56:26;;;;;;;;;;;;;;;25.58;28.68;94604.06;4903060;29;7026;-56
2023/12/27 10:59:10;;;;;;;;;;;;;;;25.67;29.19;94598.28;4908808;29;9088;-56
2023/12/27 11:01:39;;;;;;;;;;;;;;;25.71;28.97;94585.00;4915425;29;6990;-56
2023/12/27 11:04:22;;;;;;;;;;;;;;;25.73;29.65;94588.00;4914401;29;7047;-56
2023/12/27 11:06:58;;;;;;;;;;;;;;;25.77;29.81;94585.75;4915650;29;9494;-56
2023/12/27 11:10:19;;;;;;;;;;;;;;;25.80;29.84;94581.97;4915840;29;7626;-56
2023/12/27 11:12:53;;;;;;;;;;;;;;;25.79;29.33;94577.72;4940911;28;7244;-56
2023/12/27 11:15:21;;;;;;;;;;;;;;;25.78;29.08;94562.44;4933214;29;7231;-56
2023/12/27 11:18:00;;;;;;;;;;;;;;;25.86;30.08;94565.41;4953578;28;7140;-57
2023/12/27 11:20:39;;;;;;;;;;;;;;;25.87;30.19;94556.63;4937331;28;9446;-56
2023/12/27 11:23:08;;;;;;;;;;;;;;;25.88;31.36;94547.09;4953174;28;9907;-56
2023/12/27 11:25:34;;;;;;;;;;;;;;;25.91;30.12;94540.56;4952236;28;7479;-55
2023/12/27 11:28:03;;;;;;;;;;;;;;;25.95;30.51;94541.03;4926833;28;9210;-57
2023/12/27 11:30:32;;;;;;;;;;;;;;;25.96;30.98;94533.53;4980511;28;8225;-57
2023/12/27 11:32:59;;;;;;;;;;;;;;;25.96;31.08;94519.75;5029514;28;7467;-57
2023/12/27 11:35:32;;;;;;;;;;;;;;;25.94;30.95;94523.03;5029550;28;9354;-57
2023/12/27 11:38:25;;;;;;;;;;;;;;;25.97;30.73;94516.47;5017689;28;8892;-57
2023/12/27 11:40:56;;;;;;;;;;;;;;;25.98;30.79;94506.97;5039797;28;9290;-56
2023/12/27 11:43:45;;;;;;;;;;;;;;;25.99;31.08;94505.69;5011176;28;9081;-56
2023/12/27 11:46:13;;;;;;;;;;;;;;;25.96;31.74;94497.72;5025030;28;9177;-57
2023/12/27 11:48:43;;;;;;;;;;;;;;;25.94;31.49;94503.75;5014109;28;7079;-57
2023/12/27 11:51:27;;;;;;;;;;;;;;;25.93;31.75;94501.47;5021663;28;7014;-38
2023/12/27 11:53:54;;;;;;;;;;;;;;;25.94;32.62;94498.22;5030621;28;8864;-37
2023/12/27 11:56:21;;;;;;;;;;;;;;;25.97;32.51;94494.44;5021038;28;6999;-38
2023/12/27 11:59:02;;;;;;;;;;;;;;;25.98;32.50;94495.94;5029822;28;9095;-38
2023/12/27 12:01:35;;;;;;;;;;;;;;;26.03;32.52;94494.41;5035556;28;7282;-38
2023/12/27 12:04:38;;;;;;;;;;;;;;;26.06;32.80;94491.38;5038614;28;7403;-37
2023/12/27 12:07:26;;;;;;;;;;;;;;;26.07;32.39;94481.84;4988209;28;7220;-37
2023/12/27 12:10:22;;;;;;;;;;;;;;;26.10;33.21;94475.31;4983112;28;7567;-37
2023/12/27 12:12:59;;;;;;;;;;;;;;;26.14;32.99;94480.59;4972761;28;9449;-38
2023/12/27 12:15:42;;;;;;;;;;;;;;;26.18;32.58;94467.28;4974878;28;7320;-37
2023/12/27 12:18:08;;;;;;;;;;;;;;;26.19;33.15;94462.50;4972834;28;7001;-38
2023/12/27 12:20:36;;;;;;;;;;;;;;;26.19;32.94;94457.00;4990074;28;7005;-38
2023/12/27 12:23:13;;;;;;;;;;;;;;;26.22;33.50;94453.19;4988250;28;9263;-37
2023/12/27 12:25:42;;;;;;;;;;;;;;;26.30;33.18;94451.38;4984875;28;7316;-37
2023/12/27 12:28:38;;;;;;;;;;;;;;;26.33;33.46;94445.59;4995351;28;7270;-37
2023/12/27 12:31:04;;;;;;;;;;;;;;;26.34;33.59;94446.34;4955142;28;8160;-37
2023/12/27 12:33:41;;;;;;;;;;;;;;;26.34;33.27;94433.28;4946298;28;9452;-37
2023/12/27 12:36:21;;;;;;;;;;;;;;;26.35;33.65;94423.00;4956883;28;7031;-38
2023/12/27 12:38:56;;;;;;;;;;;;;;;26.36;33.49;94425.25;4938309;29;9040;-37
2023/12/27 12:41:31;;;;;;;;;;;;;;;26.37;33.51;94423.22;4932342;28;7500;-37
2023/12/27 12:44:14;;;;;;;;;;;;;;;26.39;33.74;94424.22;4957123;28;7286;-37
2023/12/27 12:46:56;;;;;;;;;;;;;;;26.41;33.06;94415.44;4938512;28;7316;-38
2023/12/27 12:49:55;;;;;;;;;;;;;;;26.44;33.50;94415.16;4956974;28;9456;-37
2023/12/27 12:52:41;;;;;;;;;;;;;;;26.48;33.49;94410.09;4940886;28;9926;-37
2023/12/27 12:55:08;;;;;;;;;;;;;;;26.51;33.69;94411.09;4940385;28;9333;-37
2023/12/27 12:57:35;;;;;;;;;;;;;;;26.50;33.64;94406.81;4932861;28;7365;-37
2023/12/27 13:00:12;;;;;;;;;;;;;;;26.52;33.68;94401.53;4940559;28;7221;-37
2023/12/27 13:02:39;;;;;;;;;;;;;;;26.51;34.12;94406.28;4942329;28;9080;-39
2023/12/27 13:05:23;;;;;;;;;;;;;;;26.52;33.63;94402.28;4949643;28;9046;-38
2023/12/27 13:07:49;;;;;;;;;;;;;;;26.51;34.03;94395.25;5001909;28;9009;-38
2023/12/27 13:10:15;;;;;;;;;;;;;;;26.53;34.26;94397.53;5017977;28;7233;-39
2023/12/27 13:12:43;;;;;;;;;;;;;;;26.52;34.00;94391.25;5030064;28;7251;-38
2023/12/27 13:15:19;;;;;;;;;;;;;;;26.54;34.07;94393.47;5019886;28;7138;-39
2023/12/27 13:17:46;;;;;;;;;;;;;;;26.57;34.02;94384.19;5022092;28;9105;-38
2023/12/27 13:20:13;;;;;;;;;;;;;;;26.53;34.28;94390.00;5029485;28;7241;-38
2023/12/27 13:22:50;;;;;;;;;;;;;;;26.54;34.87;94379.69;5039136;28;9061;-38
2023/12/27 13:25:20;;;;;;;;;;;;;;;26.57;34.75;94378.66;5022409;28;7130;-38
2023/12/27 13:27:51;;;;;;;;;;;;;;;26.59;34.55;94376.13;5021153;28;7233;-38
2023/12/27 13:30:31;;;;;;;;;;;;;;;26.63;34.29;94365.56;5016947;28;7243;-38
2023/12/27 13:33:18;;;;;;;;;;;;;;;26.63;34.11;94362.78;5034346;28;7476;-38
2023/12/27 13:35:52;;;;;;;;;;;;;;;26.61;34.87;94362.56;5023989;28;6856;-39